This is the latest recevied weather packets stored in our database for station/object KJ4EWA. If no packets are shown the sender has not sent any weather packets the latest 10 day(s).
| Time | Temp. | Humidity | Pressure | Rain* | Wind** | Luminosity | Snow |
|---|---|---|---|---|---|---|---|
| 1777649916 | 18.89° C | 99% | 1016.9 hPa | 0 mm | - | 39 W/m² | - |
| 1777649613 | 18.89° C | 99% | 1016.4 hPa | 0 mm | - | 43 W/m² | - |
| 1777649309 | 19.44° C | 99% | 1016.4 hPa | 0 mm | - | 50 W/m² | - |
| 1777649006 | 19.44° C | 99% | 1016.6 hPa | 0 mm | - | 92 W/m² | - |
| 1777648704 | 18.89° C | 99% | 1016.6 hPa | 0 mm | - | 97 W/m² | - |
| 1777648400 | 18.89° C | 99% | 1016.9 hPa | 0 mm | - | 84 W/m² | - |
| 1777648096 | 18.89° C | 99% | 1016.9 hPa | 0 mm | - | 73 W/m² | - |
| 1777647793 | 18.89° C | 99% | 1016.9 hPa | 0 mm | - | 38 W/m² | - |
| 1777647489 | 18.89° C | 99% | 1016.7 hPa | 0 mm | - | 49 W/m² | - |
| 1777647186 | 18.89° C | 99% | 1015.7 hPa | 0 mm | - | 135 W/m² | - |
| 1777646883 | 18.89° C | 99% | 1016.4 hPa | 0 mm | - | 79 W/m² | - |
| 1777646578 | 18.89° C | 99% | 1016.5 hPa | 0 mm | - | 111 W/m² | - |
| 1777646275 | 18.89° C | 99% | 1016.9 hPa | 0 mm | - | 49 W/m² | - |
| 1777645972 | 18.89° C | 99% | 1016.4 hPa | 0 mm | - | 35 W/m² | - |
| 1777645669 | 18.89° C | 99% | 1016.5 hPa | 0 mm | - | 42 W/m² | - |
| 1777645365 | 19.44° C | 99% | 1015.8 hPa | 0 mm | - | 61 W/m² | - |
| 1777645061 | 18.89° C | 99% | 1015.5 hPa | 0 mm | - | 117 W/m² | - |
| 1777644758 | 18.33° C | 99% | 1015.8 hPa | 0 mm | - | 93 W/m² | - |
| 1777644455 | 18.33° C | 99% | 1015.5 hPa | 0 mm | - | 105 W/m² | - |
| 1777644152 | 18.33° C | 99% | 1015.9 hPa | 0 mm | - | 79 W/m² | - |
| 1777643848 | 18.89° C | 99% | 1015.7 hPa | 0 mm | - | 73 W/m² | - |
| 1777643546 | 18.89° C | 99% | 1015.7 hPa | 0 mm | - | 79 W/m² | - |
| 1777643242 | 18.33° C | 99% | 1016.1 hPa | 0 mm | - | 98 W/m² | - |
| 1777642939 | 18.33° C | 99% | 1016 hPa | 0 mm | - | 56 W/m² | - |
| 1777642635 | 18.33° C | 99% | 1015.9 hPa | 0 mm | - | 78 W/m² | - |
* Rain latest hour (hover to see other rain measurements)
** Current wind speed in m/s (hover to see current wind gust speed)